Darstellungsparameter: Aktuell verwendete Einstellungen:
Skalierung der Graphiken ... ?
xyx+y,   Skalierungsfaktor:      Skalierung: Modus: x, Faktor: 1
Darstellungszeitraum ... ?
Vom - - bis: - -   Zeitraum: 18.04.2011 - 20.04.2011
Min/Max/Avg-Anzeige ... ?
Zeige MMA aktuell
Zeige MMA Monat
Zeige MMA alles
Zeige --A aktuell
Zeige --A Monat
Zeige --A alles
Keine MMA-Anzeige
MMA:
Average (ber die Originaldaten)
MMA-Basis: 23.02.2003 - 29.09.2020
Quicknavigation für Darstellung... ?
Tage:      1T, 2T, 3T, 5T -1T -2T -3T -5T +1T +2T +3T +5T
Wochen: 1W, 2W, 3W -1W -2W -3W +1W +2W +3W
Monate: 1M, 3M, 6M -1M -3M -6M +1M +3M +6M
Jahre:    1J, 3J, 5J, 10J -1J -3J -5J -10J +1J +3J +5J +10J
Nutze für die Darstellung ... ?
Originaldaten oder Mittelwerte auf ...
Stundenbasis Tagesbasis Wochenbasis
Monatsbasis Jahresbasis      Datenbasis: Original-Daten
Darstellen als:
Statistik (Auto) Statistik J:M      Darstellung:
Zur Graphik,    zurück zur Übersicht aller Sensoren.
 
Tabellarische Datenbersicht: ?
 
Sensor: Nr:Datum:Temp:Abs-Feuchte:Windchill:Wind:
Aussen-T/F 1 18-04-2011 00:11:03 5.1 C 4.51 g/m*3 5.1 C 0 km/h
2 18-04-2011 00:23:03 5.1 C 4.51 g/m*3 5.1 C 0 km/h
3 18-04-2011 00:35:03 4.9 C 4.52 g/m*3 4.9 C 0 km/h
4 18-04-2011 00:47:03 4.8 C 4.49 g/m*3 4.8 C 0 km/h
5 18-04-2011 00:59:03 4.4 C 4.37 g/m*3 4.4 C 0 km/h
6 18-04-2011 01:11:03 4.1 C 4.35 g/m*3 4.1 C 0 km/h
7 18-04-2011 01:23:04 4.1 C 4.48 g/m*3 4.1 C 0 km/h
8 18-04-2011 01:35:04 3.7 C 4.42 g/m*3 3.7 C 0 km/h
9 18-04-2011 01:47:04 3.6 C 4.46 g/m*3 3.6 C 0 km/h
10 18-04-2011 01:59:04 3.3 C 4.49 g/m*3 3.3 C 0 km/h
11 18-04-2011 02:11:04 3.2 C 4.52 g/m*3 3.2 C 0 km/h
12 18-04-2011 02:23:04 2.8 C 4.52 g/m*3 2.8 C 0 km/h
13 18-04-2011 02:35:04 2.5 C 4.43 g/m*3 2.5 C 0 km/h
14 18-04-2011 02:47:04 2.4 C 4.45 g/m*3 2.4 C 0 km/h
15 18-04-2011 02:59:04 2.5 C 4.54 g/m*3 2.5 C 0 km/h
16 18-04-2011 03:11:04 2.2 C 4.51 g/m*3 2.2 C 0 km/h
17 18-04-2011 03:23:04 2.1 C 4.53 g/m*3 2.1 C 0 km/h
18 18-04-2011 03:35:04 2.1 C 4.53 g/m*3 2.1 C 0 km/h
19 18-04-2011 03:47:04 2 C 4.61 g/m*3 2 C 0 km/h
20 18-04-2011 03:59:04 1.9 C 4.64 g/m*3 1.9 C 0 km/h
21 18-04-2011 04:11:04 1.8 C 4.6 g/m*3 1.8 C 0 km/h
22 18-04-2011 04:23:04 1.5 C 4.51 g/m*3 1.5 C 0 km/h
23 18-04-2011 04:35:04 1.4 C 4.48 g/m*3 1.4 C 0 km/h
24 18-04-2011 04:47:04 1.2 C 4.42 g/m*3 1.2 C 0 km/h
25 18-04-2011 04:59:04 1.2 C 4.47 g/m*3 1.2 C 0 km/h
Sensor: Nr:Datum:Temp:Abs-Feuchte:Windchill:Wind:
Aussen-T/F 26 18-04-2011 05:11:04 1.1 C 4.44 g/m*3 1.1 C 0 km/h
27 18-04-2011 05:23:04 1.1 C 4.49 g/m*3 1.1 C 0 km/h
28 18-04-2011 05:35:05 1 C 4.46 g/m*3 1 C 0 km/h
29 18-04-2011 05:47:05 0.9 C 4.48 g/m*3 0.9 C 0 km/h
30 18-04-2011 05:59:05 0.8 C 4.45 g/m*3 0.8 C 0 km/h
31 18-04-2011 06:11:05 0.8 C 4.45 g/m*3 0.8 C 0 km/h
32 18-04-2011 06:23:05 0.7 C 4.47 g/m*3 0.7 C 0 km/h
33 18-04-2011 06:35:05 0.6 C 4.44 g/m*3 0.6 C 0 km/h
34 18-04-2011 06:47:05 0.7 C 4.47 g/m*3 0.7 C 0 km/h
35 18-04-2011 06:59:05 0.8 C 4.56 g/m*3 0.8 C 0 km/h
36 18-04-2011 07:11:05 0.9 C 4.59 g/m*3 0.9 C 0 km/h
37 18-04-2011 07:23:02 1.1 C 4.6 g/m*3 1.1 C 0 km/h
38 18-04-2011 07:35:02 1.3 C 4.72 g/m*3 1.3 C 0 km/h
39 18-04-2011 07:47:02 1.4 C 4.75 g/m*3 1.4 C 0 km/h
40 18-04-2011 07:59:02 1.8 C 4.88 g/m*3 1.8 C 0 km/h
41 18-04-2011 08:11:02 1.9 C 4.91 g/m*3 1.9 C 0 km/h
42 18-04-2011 08:23:02 2.3 C 4.99 g/m*3 2.3 C 0 km/h
43 18-04-2011 08:35:02 2.7 C 5.13 g/m*3 2.7 C 0 km/h
44 18-04-2011 08:47:02 3.1 C 5.27 g/m*3 3.1 C 0 km/h
45 18-04-2011 08:59:02 3.5 C 5.41 g/m*3 3.5 C 0 km/h
46 18-04-2011 09:11:02 3.7 C 5.48 g/m*3 3.7 C 0 km/h
47 18-04-2011 09:23:02 4.1 C 5.57 g/m*3 4.1 C 0 km/h
48 18-04-2011 09:35:02 4.5 C 5.65 g/m*3 4.5 C 0 km/h
49 18-04-2011 09:47:02 5 C 5.78 g/m*3 5 C 0 km/h
50 18-04-2011 09:59:02 5.5 C 5.9 g/m*3 5.5 C 0 km/h
Sensor: Nr:Datum:Temp:Abs-Feuchte:Windchill:Wind:
Aussen-T/F 51 18-04-2011 10:11:02 6.4 C 6.04 g/m*3 6.4 C 0 km/h
52 18-04-2011 10:23:02 7 C 6.04 g/m*3 7 C 0 km/h
53 18-04-2011 10:35:02 8.1 C 5.99 g/m*3 8.1 C 0 km/h
54 18-04-2011 10:47:02 9.2 C 5.98 g/m*3 9.2 C 0 km/h
55 18-04-2011 10:59:02 9.7 C 5.99 g/m*3 9.7 C 0 km/h
56 18-04-2011 11:11:02 10.3 C 5.75 g/m*3 10.3 C 0 km/h
57 18-04-2011 11:23:02 11 C 5.71 g/m*3 11 C 0 km/h
58 18-04-2011 11:35:02 11.8 C 5.47 g/m*3 11.8 C 0 km/h
59 18-04-2011 11:47:02 13.1 C 4.91 g/m*3 13.1 C 0 km/h
60 18-04-2011 11:59:02 13.9 C 4.56 g/m*3 13.9 C 0 km/h
61 18-04-2011 12:11:02 14.5 C 4.48 g/m*3 14.5 C 0 km/h
62 18-04-2011 12:23:02 15.1 C 4.13 g/m*3 15.1 C 0 km/h
63 18-04-2011 12:35:01 16.2 C 3.86 g/m*3 16.2 C 0 km/h
64 18-04-2011 12:47:02 16.4 C 3.49 g/m*3 16.4 C 0 km/h
65 18-04-2011 12:59:02 17.1 C 3.2 g/m*3 17.1 C 0 km/h
66 18-04-2011 13:11:01 17.2 C 3.66 g/m*3 17.2 C 0 km/h
67 18-04-2011 13:23:01 17.7 C 3.47 g/m*3 17.7 C 0 km/h
68 18-04-2011 13:35:02 18 C 3.38 g/m*3 18 C 0 km/h
69 18-04-2011 13:47:02 20.6 C 3.58 g/m*3 20.6 C 0 km/h
70 18-04-2011 13:59:03 22.7 C 4.04 g/m*3 22.7 C 0 km/h
71 18-04-2011 14:11:02 23.1 C 4.13 g/m*3 23.1 C 0 km/h
72 18-04-2011 14:23:02 23.2 C 4.16 g/m*3 23.2 C 0 km/h
73 18-04-2011 14:35:02 24.2 C 4.4 g/m*3 24.2 C 0 km/h
74 18-04-2011 14:47:02 22.9 C 4.09 g/m*3 22.9 C 0 km/h
75 18-04-2011 14:59:02 24.8 C 4.55 g/m*3 24.8 C 0 km/h
Sensor: Nr:Datum:Temp:Abs-Feuchte:Windchill:Wind:
Aussen-T/F 76 18-04-2011 15:11:01 23.7 C 4.28 g/m*3 23.7 C 0 km/h
77 18-04-2011 15:23:01 23.8 C 4.3 g/m*3 23.8 C 0 km/h
78 18-04-2011 15:35:02 25.7 C 4.79 g/m*3 25.7 C 0 km/h
79 18-04-2011 15:47:02 26.1 C 4.9 g/m*3 26.1 C 0 km/h
80 18-04-2011 15:59:02 23.3 C 4.18 g/m*3 23.3 C 0 km/h
81 18-04-2011 16:11:02 27.8 C 5.38 g/m*3 27.8 C 0 km/h
82 18-04-2011 16:23:02 25.1 C 4.63 g/m*3 25.1 C 0 km/h
83 18-04-2011 16:35:02 26.2 C 4.92 g/m*3 26.2 C 0 km/h
84 18-04-2011 16:47:02 25.8 C 4.82 g/m*3 25.8 C 0 km/h
85 18-04-2011 16:59:02 25.6 C 4.76 g/m*3 25.6 C 0 km/h
86 18-04-2011 17:11:03 26.9 C 5.12 g/m*3 26.9 C 0 km/h
87 18-04-2011 17:23:02 25.7 C 4.79 g/m*3 25.7 C 0 km/h
88 18-04-2011 17:35:02 26.1 C 4.9 g/m*3 26.1 C 0 km/h
89 18-04-2011 17:47:01 25.1 C 4.63 g/m*3 25.1 C 0 km/h
90 18-04-2011 17:59:01 23.4 C 4.21 g/m*3 23.4 C 0 km/h
91 18-04-2011 18:11:02 25 C 4.6 g/m*3 25 C 0 km/h
92 18-04-2011 18:23:03 24.2 C 4.4 g/m*3 24.2 C 0 km/h
93 18-04-2011 18:35:02 23.3 C 4.18 g/m*3 23.3 C 0 km/h
94 18-04-2011 18:47:02 22.6 C 4.02 g/m*3 22.6 C 0 km/h
95 18-04-2011 18:59:02 22.6 C 4.02 g/m*3 22.6 C 0 km/h
96 18-04-2011 19:11:02 21.3 C 3.73 g/m*3 21.3 C 0 km/h
97 18-04-2011 19:23:02 20.2 C 3.85 g/m*3 20.2 C 0 km/h
98 18-04-2011 19:35:02 18 C 4.3 g/m*3 18 C 0 km/h
99 18-04-2011 19:47:01 16.6 C 4.94 g/m*3 16.6 C 0 km/h
100 18-04-2011 19:59:01 15.2 C 4.93 g/m*3 15.2 C 0 km/h
Sensor: Nr:Datum:Temp:Abs-Feuchte:Windchill:Wind:
Aussen-T/F 101 18-04-2011 20:11:02 14.2 C 4.88 g/m*3 14.2 C 0 km/h
102 18-04-2011 20:23:01 13.4 C 4.65 g/m*3 13.4 C 0 km/h
103 18-04-2011 20:35:01 12.9 C 4.51 g/m*3 12.9 C 0 km/h
104 18-04-2011 20:47:02 12.4 C 4.48 g/m*3 12.4 C 0 km/h
105 18-04-2011 20:59:02 11.7 C 4.6 g/m*3 11.7 C 0 km/h
106 18-04-2011 21:11:02 11.4 C 4.72 g/m*3 11.4 C 0 km/h
107 18-04-2011 21:23:02 11.4 C 4.82 g/m*3 11.4 C 0 km/h
108 18-04-2011 21:35:02 10.6 C 4.68 g/m*3 10.6 C 0 km/h
109 18-04-2011 21:47:02 10.2 C 4.76 g/m*3 10.2 C 0 km/h
110 18-04-2011 21:59:02 10 C 4.79 g/m*3 10 C 0 km/h
111 18-04-2011 22:11:02 9.7 C 4.98 g/m*3 9.7 C 0 km/h
112 18-04-2011 22:23:02 9.4 C 5.06 g/m*3 9.4 C 0 km/h
113 18-04-2011 22:36:04 9.1 C 5.06 g/m*3 9.1 C 0 km/h
114 18-04-2011 22:48:04 8.9 C 4.91 g/m*3 8.9 C 0 km/h
115 18-04-2011 23:00:04 8.4 C 5.01 g/m*3 8.4 C 0 km/h
116 18-04-2011 23:12:04 8.1 C 4.99 g/m*3 8.1 C 0 km/h
117 18-04-2011 23:24:04 7.9 C 5.09 g/m*3 7.9 C 0 km/h
118 18-04-2011 23:36:04 7.6 C 5.08 g/m*3 7.6 C 0 km/h
119 18-04-2011 23:48:04 7.3 C 4.98 g/m*3 7.3 C 0 km/h
120 19-04-2011 00:00:04 6.9 C 5.08 g/m*3 6.9 C 0 km/h
121 19-04-2011 00:12:05 6.6 C 5.13 g/m*3 6.6 C 0 km/h
122 19-04-2011 00:24:05 6.4 C 4.99 g/m*3 6.4 C 0 km/h
123 19-04-2011 00:36:05 6.3 C 5.11 g/m*3 6.3 C 0 km/h
124 19-04-2011 00:48:05 5.9 C 5.05 g/m*3 5.9 C 0 km/h
125 19-04-2011 01:00:05 5.6 C 4.95 g/m*3 5.6 C 0 km/h
Sensor: Nr:Datum:Temp:Abs-Feuchte:Windchill:Wind:
Aussen-T/F 126 19-04-2011 01:12:05 5.5 C 5.13 g/m*3 5.5 C 0 km/h
127 19-04-2011 01:24:05 5.3 C 5.06 g/m*3 5.3 C 0 km/h
128 19-04-2011 01:36:05 5.1 C 4.99 g/m*3 5.1 C 0 km/h
129 19-04-2011 01:48:05 5 C 5.03 g/m*3 5 C 0 km/h
130 19-04-2011 02:00:05 4.8 C 5.03 g/m*3 4.8 C 0 km/h
131 19-04-2011 02:12:05 4.6 C 5.03 g/m*3 4.6 C 0 km/h
132 19-04-2011 02:24:05 4.5 C 5 g/m*3 4.5 C 0 km/h
133 19-04-2011 02:36:05 4.2 C 4.96 g/m*3 4.2 C 0 km/h
134 19-04-2011 02:48:05 4.2 C 5.03 g/m*3 4.2 C 0 km/h
135 19-04-2011 03:00:05 4.2 C 5.03 g/m*3 4.2 C 0 km/h
136 19-04-2011 03:12:05 3.8 C 5.02 g/m*3 3.8 C 0 km/h
137 19-04-2011 03:24:05 3.6 C 4.95 g/m*3 3.6 C 0 km/h
138 19-04-2011 03:36:05 3.6 C 5.01 g/m*3 3.6 C 0 km/h
139 19-04-2011 03:48:05 3.5 C 4.98 g/m*3 3.5 C 0 km/h
140 19-04-2011 04:00:05 3.5 C 5.04 g/m*3 3.5 C 0 km/h
141 19-04-2011 04:12:05 3.3 C 5.04 g/m*3 3.3 C 0 km/h
142 19-04-2011 04:24:06 3.1 C 4.97 g/m*3 3.1 C 0 km/h
143 19-04-2011 04:36:06 3 C 4.99 g/m*3 3 C 0 km/h
144 19-04-2011 04:48:06 2.9 C 5.02 g/m*3 2.9 C 0 km/h
145 19-04-2011 05:00:06 2.7 C 4.95 g/m*3 2.7 C 0 km/h
146 19-04-2011 05:12:06 2.6 C 4.92 g/m*3 2.6 C 0 km/h
147 19-04-2011 05:24:06 2.5 C 4.89 g/m*3 2.5 C 0 km/h
148 19-04-2011 05:36:06 2.4 C 4.91 g/m*3 2.4 C 0 km/h
149 19-04-2011 05:48:06 2.3 C 4.88 g/m*3 2.3 C 0 km/h
150 19-04-2011 06:00:06 2.3 C 4.93 g/m*3 2.3 C 0 km/h
Sensor: Nr:Datum:Temp:Abs-Feuchte:Windchill:Wind:
Aussen-T/F 151 19-04-2011 06:12:06 2.2 C 4.9 g/m*3 2.2 C 0 km/h
152 19-04-2011 06:24:06 2.2 C 4.9 g/m*3 2.2 C 0 km/h
153 19-04-2011 06:36:06 2.2 C 4.96 g/m*3 2.2 C 0 km/h
154 19-04-2011 06:48:06 2.2 C 4.96 g/m*3 2.2 C 0 km/h
155 19-04-2011 07:00:06 2.2 C 4.96 g/m*3 2.2 C 0 km/h
156 19-04-2011 07:12:06 2.5 C 5.12 g/m*3 2.5 C 0 km/h
157 19-04-2011 07:24:03 2.6 C 5.15 g/m*3 2.6 C 0 km/h
158 19-04-2011 07:36:03 2.8 C 5.22 g/m*3 2.8 C 0 km/h
159 19-04-2011 07:48:01 3.1 C 5.27 g/m*3 3.1 C 0 km/h
160 19-04-2011 08:00:01 3.4 C 5.37 g/m*3 3.4 C 0 km/h
161 19-04-2011 08:12:02 3.6 C 5.51 g/m*3 3.6 C 0 km/h
162 19-04-2011 08:24:02 3.7 C 5.55 g/m*3 3.7 C 0 km/h
163 19-04-2011 08:36:01 3.9 C 5.62 g/m*3 3.9 C 0 km/h
164 19-04-2011 08:48:02 4.2 C 5.67 g/m*3 4.2 C 0 km/h
165 19-04-2011 09:00:02 4.5 C 5.85 g/m*3 4.5 C 0 km/h
166 19-04-2011 09:12:01 4.8 C 5.9 g/m*3 4.8 C 0 km/h
167 19-04-2011 09:24:02 5.4 C 6.14 g/m*3 5.4 C 0 km/h
168 19-04-2011 09:36:02 5.9 C 6.35 g/m*3 5.9 C 0 km/h
169 19-04-2011 09:48:02 6.5 C 6.52 g/m*3 6.5 C 0 km/h
170 19-04-2011 10:00:03 7 C 6.59 g/m*3 7 C 0 km/h
171 19-04-2011 10:12:02 7.7 C 6.81 g/m*3 7.7 C 0 km/h
172 19-04-2011 10:24:02 8.6 C 6.96 g/m*3 8.6 C 0 km/h
173 19-04-2011 10:36:02 9.4 C 6.87 g/m*3 9.4 C 0 km/h
174 19-04-2011 10:48:01 10.2 C 6.66 g/m*3 10.2 C 0 km/h
175 19-04-2011 11:00:01 11 C 6.31 g/m*3 11 C 0 km/h
Sensor: Nr:Datum:Temp:Abs-Feuchte:Windchill:Wind:
Aussen-T/F 176 19-04-2011 11:12:02 12.2 C 6.58 g/m*3 12.2 C 0 km/h
177 19-04-2011 11:24:01 12.8 C 6.38 g/m*3 12.8 C 0 km/h
178 19-04-2011 11:36:02 13.3 C 6.12 g/m*3 13.3 C 0 km/h
179 19-04-2011 11:48:02 14.5 C 5.72 g/m*3 14.5 C 0 km/h
180 19-04-2011 12:00:02 15.2 C 5.19 g/m*3 15.2 C 0 km/h
181 19-04-2011 12:12:02 17 C 4.92 g/m*3 17 C 0 km/h
182 19-04-2011 12:24:01 17.4 C 4.74 g/m*3 17.4 C 0 km/h
183 19-04-2011 12:36:02 19.3 C 4.48 g/m*3 19.3 C 0 km/h
184 19-04-2011 12:48:02 19 C 3.91 g/m*3 19 C 0 km/h
185 19-04-2011 13:00:02 19.1 C 4.26 g/m*3 19.1 C 0 km/h
186 19-04-2011 13:12:02 19.3 C 3.98 g/m*3 19.3 C 0 km/h
187 19-04-2011 13:24:02 19.7 C 4.25 g/m*3 19.7 C 0 km/h
188 19-04-2011 13:36:02 20.2 C 4.02 g/m*3 20.2 C 0 km/h
189 19-04-2011 13:48:02 23.8 C 4.3 g/m*3 23.8 C 0 km/h
190 19-04-2011 14:00:02 24.7 C 4.53 g/m*3 24.7 C 0 km/h
191 19-04-2011 14:12:02 26.9 C 5.12 g/m*3 26.9 C 0 km/h
192 19-04-2011 14:24:02 27 C 5.15 g/m*3 27 C 0 km/h
193 19-04-2011 14:36:02 25.2 C 4.66 g/m*3 25.2 C 0 km/h
194 19-04-2011 14:48:02 28.4 C 5.56 g/m*3 28.4 C 0 km/h
195 19-04-2011 15:00:02 27.4 C 5.26 g/m*3 27.4 C 0 km/h
196 19-04-2011 15:12:02 30 C 6.06 g/m*3 30 C 0 km/h
197 19-04-2011 15:24:02 29.3 C 5.84 g/m*3 29.3 C 0 km/h
198 19-04-2011 15:36:02 27.1 C 5.18 g/m*3 27.1 C 0 km/h
199 19-04-2011 15:48:02 29.2 C 5.81 g/m*3 29.2 C 0 km/h
200 19-04-2011 16:00:02 30.1 C 6.1 g/m*3 30.1 C 0 km/h
Sensor: Nr:Datum:Temp:Abs-Feuchte:Windchill:Wind:
Aussen-T/F 201 19-04-2011 16:12:02 28.8 C 5.68 g/m*3 28.8 C 0 km/h
202 19-04-2011 16:24:03 29 C 5.74 g/m*3 29 C 0 km/h
203 19-04-2011 16:36:02 28.7 C 5.65 g/m*3 28.7 C 0 km/h
204 19-04-2011 16:48:02 27.3 C 5.23 g/m*3 27.3 C 0 km/h
205 19-04-2011 17:00:02 29.3 C 5.84 g/m*3 29.3 C 0 km/h
206 19-04-2011 17:12:02 28.5 C 5.59 g/m*3 28.5 C 0 km/h
207 19-04-2011 17:24:03 29.2 C 5.81 g/m*3 29.2 C 0 km/h
208 19-04-2011 17:36:02 28.5 C 5.59 g/m*3 28.5 C 0 km/h
209 19-04-2011 17:48:03 27.9 C 5.41 g/m*3 27.9 C 0 km/h
210 19-04-2011 18:00:03 27.9 C 5.41 g/m*3 27.9 C 0 km/h
211 19-04-2011 18:12:02 28.1 C 5.47 g/m*3 28.1 C 0 km/h
212 19-04-2011 18:24:03 27.7 C 5.35 g/m*3 27.7 C 0 km/h
213 19-04-2011 18:36:02 27.3 C 5.23 g/m*3 27.3 C 0 km/h
214 19-04-2011 18:48:02 26.9 C 5.12 g/m*3 26.9 C 0 km/h
215 19-04-2011 19:00:02 26.2 C 4.92 g/m*3 26.2 C 0 km/h
216 19-04-2011 19:12:02 25.1 C 4.63 g/m*3 25.1 C 0 km/h
217 19-04-2011 19:24:02 22.4 C 3.97 g/m*3 22.4 C 0 km/h
218 19-04-2011 19:36:02 19.7 C 4.58 g/m*3 19.7 C 0 km/h
219 19-04-2011 19:48:02 17.9 C 4.73 g/m*3 17.9 C 0 km/h
220 19-04-2011 20:00:02 16.6 C 4.8 g/m*3 16.6 C 0 km/h
221 19-04-2011 20:12:02 15.9 C 4.6 g/m*3 15.9 C 0 km/h
222 19-04-2011 20:24:02 14.9 C 4.46 g/m*3 14.9 C 0 km/h
223 19-04-2011 20:36:01 14.6 C 4.5 g/m*3 14.6 C 0 km/h
224 19-04-2011 20:48:02 13.9 C 4.68 g/m*3 13.9 C 0 km/h
225 19-04-2011 21:00:02 13.6 C 4.71 g/m*3 13.6 C 0 km/h
Sensor: Nr:Datum:Temp:Abs-Feuchte:Windchill:Wind:
Aussen-T/F 226 19-04-2011 21:12:01 12.9 C 4.73 g/m*3 12.9 C 0 km/h
227 19-04-2011 21:24:02 12.5 C 4.84 g/m*3 12.5 C 0 km/h
228 19-04-2011 21:36:02 12.4 C 5.03 g/m*3 12.4 C 0 km/h
229 19-04-2011 21:48:02 11.8 C 5.05 g/m*3 11.8 C 0 km/h
230 19-04-2011 22:00:02 11.6 C 5.09 g/m*3 11.6 C 0 km/h
231 19-04-2011 22:12:02 11.1 C 5.14 g/m*3 11.1 C 0 km/h
232 19-04-2011 22:25:04 10.6 C 5.37 g/m*3 10.6 C 0 km/h
233 19-04-2011 22:37:04 10.7 C 5.4 g/m*3 10.7 C 0 km/h
234 19-04-2011 22:49:04 10.3 C 5.17 g/m*3 10.3 C 0 km/h
235 19-04-2011 23:01:04 9.9 C 5.23 g/m*3 9.9 C 0 km/h
236 19-04-2011 23:13:04 9.5 C 5.1 g/m*3 9.5 C 0 km/h
237 19-04-2011 23:25:04 9.1 C 5.15 g/m*3 9.1 C 0 km/h
238 19-04-2011 23:37:04 8.5 C 5.12 g/m*3 8.5 C 0 km/h
239 19-04-2011 23:49:04 8.2 C 5.19 g/m*3 8.2 C 0 km/h
240 20-04-2011 00:01:04 8.1 C 5.33 g/m*3 8.1 C 0 km/h
241 20-04-2011 00:13:04 7.6 C 5.24 g/m*3 7.6 C 0 km/h
242 20-04-2011 00:25:04 7.3 C 5.21 g/m*3 7.3 C 0 km/h
243 20-04-2011 00:37:04 7.3 C 5.37 g/m*3 7.3 C 0 km/h
244 20-04-2011 00:49:04 7.1 C 5.3 g/m*3 7.1 C 0 km/h
245 20-04-2011 01:01:04 6.9 C 5.31 g/m*3 6.9 C 0 km/h
246 20-04-2011 01:13:04 6.6 C 5.28 g/m*3 6.6 C 0 km/h
247 20-04-2011 01:25:04 6.5 C 5.25 g/m*3 6.5 C 0 km/h
248 20-04-2011 01:37:04 6.4 C 5.36 g/m*3 6.4 C 0 km/h
249 20-04-2011 01:49:04 6.2 C 5.22 g/m*3 6.2 C 0 km/h
250 20-04-2011 02:01:04 6.1 C 5.26 g/m*3 6.1 C 0 km/h
Sensor: Nr:Datum:Temp:Abs-Feuchte:Windchill:Wind:
Aussen-T/F 251 20-04-2011 02:13:04 6 C 5.3 g/m*3 6 C 0 km/h
252 20-04-2011 02:25:04 5.8 C 5.3 g/m*3 5.8 C 0 km/h
253 20-04-2011 02:37:05 5.6 C 5.3 g/m*3 5.6 C 0 km/h
254 20-04-2011 02:49:05 5.2 C 5.23 g/m*3 5.2 C 0 km/h
255 20-04-2011 03:01:05 5 C 5.16 g/m*3 5 C 0 km/h
256 20-04-2011 03:13:05 4.8 C 5.3 g/m*3 4.8 C 0 km/h
257 20-04-2011 03:25:05 4.6 C 5.29 g/m*3 4.6 C 0 km/h
258 20-04-2011 03:37:05 4.6 C 5.43 g/m*3 4.6 C 0 km/h
259 20-04-2011 03:49:05 4.5 C 5.46 g/m*3 4.5 C 0 km/h
260 20-04-2011 04:01:05 4.4 C 5.42 g/m*3 4.4 C 0 km/h
261 20-04-2011 04:13:05 4.2 C 5.35 g/m*3 4.2 C 0 km/h
262 20-04-2011 04:25:05 4 C 5.28 g/m*3 4 C 0 km/h
263 20-04-2011 04:37:05 3.8 C 5.27 g/m*3 3.8 C 0 km/h
264 20-04-2011 04:49:05 3.7 C 5.3 g/m*3 3.7 C 0 km/h
265 20-04-2011 05:01:05 3.6 C 5.32 g/m*3 3.6 C 0 km/h
266 20-04-2011 05:13:05 3.6 C 5.32 g/m*3 3.6 C 0 km/h
267 20-04-2011 05:25:05 3.5 C 5.35 g/m*3 3.5 C 0 km/h
268 20-04-2011 05:37:05 3.4 C 5.31 g/m*3 3.4 C 0 km/h
269 20-04-2011 05:49:05 3.3 C 5.28 g/m*3 3.3 C 0 km/h
270 20-04-2011 06:01:05 3.2 C 5.24 g/m*3 3.2 C 0 km/h
271 20-04-2011 06:13:05 3 C 5.17 g/m*3 3 C 0 km/h
272 20-04-2011 06:25:05 3.1 C 5.27 g/m*3 3.1 C 0 km/h
273 20-04-2011 06:37:06 3 C 5.23 g/m*3 3 C 0 km/h
274 20-04-2011 06:49:06 3 C 5.23 g/m*3 3 C 0 km/h
275 20-04-2011 07:01:03 3 C 5.23 g/m*3 3 C 0 km/h
Sensor: Nr:Datum:Temp:Abs-Feuchte:Windchill:Wind:
Aussen-T/F 276 20-04-2011 07:13:03 3.2 C 5.3 g/m*3 3.2 C 0 km/h
277 20-04-2011 07:25:04 3.4 C 5.44 g/m*3 3.4 C 0 km/h
278 20-04-2011 07:37:03 3.6 C 5.51 g/m*3 3.6 C 0 km/h
279 20-04-2011 07:49:01 3.7 C 5.55 g/m*3 3.7 C 0 km/h
280 20-04-2011 08:01:02 4 C 5.66 g/m*3 4 C 0 km/h
281 20-04-2011 08:13:02 4.2 C 5.73 g/m*3 4.2 C 0 km/h
282 20-04-2011 08:25:02 4.6 C 5.89 g/m*3 4.6 C 0 km/h
283 20-04-2011 08:37:01 4.7 C 5.93 g/m*3 4.7 C 0 km/h
284 20-04-2011 08:49:02 5 C 5.98 g/m*3 5 C 0 km/h
285 20-04-2011 09:01:01 5.3 C 6.1 g/m*3 5.3 C 0 km/h
286 20-04-2011 09:13:01 5.6 C 6.22 g/m*3 5.6 C 0 km/h
287 20-04-2011 09:25:02 6 C 6.31 g/m*3 6 C 0 km/h
288 20-04-2011 09:37:01 6.5 C 6.52 g/m*3 6.5 C 0 km/h
289 20-04-2011 09:49:03 7 C 6.66 g/m*3 7 C 0 km/h
290 20-04-2011 10:01:02 7.6 C 6.85 g/m*3 7.6 C 0 km/h
291 20-04-2011 10:13:02 8.3 C 7 g/m*3 8.3 C 0 km/h
292 20-04-2011 10:25:02 8.8 C 7.05 g/m*3 8.8 C 0 km/h
293 20-04-2011 10:37:02 9.7 C 7.1 g/m*3 9.7 C 0 km/h
294 20-04-2011 10:49:02 10.3 C 7.09 g/m*3 10.3 C 0 km/h
295 20-04-2011 11:01:02 11.1 C 7.15 g/m*3 11.1 C 0 km/h
296 20-04-2011 11:13:02 11.8 C 7.05 g/m*3 11.8 C 0 km/h
297 20-04-2011 11:25:02 12.4 C 6.88 g/m*3 12.4 C 0 km/h
298 20-04-2011 11:37:01 13.4 C 6.86 g/m*3 13.4 C 0 km/h
299 20-04-2011 11:49:02 14 C 6.88 g/m*3 14 C 0 km/h
300 20-04-2011 12:01:01 14.9 C 7.14 g/m*3 14.9 C 0 km/h
Sensor: Nr:Datum:Temp:Abs-Feuchte:Windchill:Wind:
Aussen-T/F 301 20-04-2011 12:13:01 16.2 C 6.62 g/m*3 16.2 C 0 km/h
302 20-04-2011 12:25:02 17.8 C 6.22 g/m*3 17.8 C 0 km/h
303 20-04-2011 12:37:02 19.4 C 5.34 g/m*3 19.4 C 0 km/h
304 20-04-2011 12:49:02 19.3 C 3.81 g/m*3 19.3 C 0 km/h
305 20-04-2011 13:01:02 20 C 3.63 g/m*3 20 C 0 km/h
306 20-04-2011 13:13:02 21.1 C 3.69 g/m*3 21.1 C 0 km/h
307 20-04-2011 13:25:02 20.8 C 3.62 g/m*3 20.8 C 0 km/h
308 20-04-2011 13:37:02 21.8 C 3.84 g/m*3 21.8 C 0 km/h
309 20-04-2011 13:49:01 24.8 C 4.55 g/m*3 24.8 C 0 km/h
310 20-04-2011 14:01:02 27 C 5.15 g/m*3 27 C 0 km/h
311 20-04-2011 14:13:02 28.2 C 5.5 g/m*3 28.2 C 0 km/h
312 20-04-2011 14:25:01 28.3 C 5.53 g/m*3 28.3 C 0 km/h
313 20-04-2011 14:37:02 26.4 C 4.98 g/m*3 26.4 C 0 km/h
314 20-04-2011 14:49:02 24.8 C 4.55 g/m*3 24.8 C 0 km/h
315 20-04-2011 15:01:02 29.6 C 5.94 g/m*3 29.6 C 0 km/h
316 20-04-2011 15:13:02 30.1 C 6.1 g/m*3 30.1 C 0 km/h
317 20-04-2011 15:25:01 27.1 C 5.18 g/m*3 27.1 C 0 km/h
318 20-04-2011 15:37:02 27.7 C 5.35 g/m*3 27.7 C 0 km/h
319 20-04-2011 15:49:02 29.6 C 5.94 g/m*3 29.6 C 0 km/h
320 20-04-2011 16:01:02 29.2 C 5.81 g/m*3 29.2 C 0 km/h
321 20-04-2011 16:13:02 28.2 C 5.5 g/m*3 28.2 C 0 km/h
322 20-04-2011 16:25:02 29.3 C 5.84 g/m*3 29.3 C 0 km/h
323 20-04-2011 16:37:02 29.6 C 5.94 g/m*3 29.6 C 0 km/h
324 20-04-2011 16:49:02 30.2 C 6.13 g/m*3 30.2 C 0 km/h
325 20-04-2011 17:01:02 30.7 C 6.3 g/m*3 30.7 C 0 km/h
Sensor: Nr:Datum:Temp:Abs-Feuchte:Windchill:Wind:
Aussen-T/F 326 20-04-2011 17:13:02 30 C 6.06 g/m*3 30 C 0 km/h
327 20-04-2011 17:25:02 30 C 6.06 g/m*3 30 C 0 km/h
328 20-04-2011 17:37:02 29.7 C 5.97 g/m*3 29.7 C 0 km/h
329 20-04-2011 17:49:02 30 C 6.06 g/m*3 30 C 0 km/h
330 20-04-2011 18:01:02 28.6 C 5.62 g/m*3 28.6 C 0 km/h
331 20-04-2011 18:13:02 28.7 C 5.65 g/m*3 28.7 C 0 km/h
332 20-04-2011 18:25:01 26.4 C 4.98 g/m*3 26.4 C 0 km/h
333 20-04-2011 18:37:02 27.1 C 5.18 g/m*3 27.1 C 0 km/h
334 20-04-2011 18:49:02 27.3 C 5.23 g/m*3 27.3 C 0 km/h
335 20-04-2011 19:01:02 26.9 C 5.12 g/m*3 26.9 C 0 km/h
336 20-04-2011 19:13:02 25.5 C 4.73 g/m*3 25.5 C 0 km/h
337 20-04-2011 19:25:02 22.3 C 4.54 g/m*3 22.3 C 0 km/h
338 20-04-2011 19:37:02 19.2 C 5.44 g/m*3 19.2 C 0 km/h
339 20-04-2011 19:49:02 18.3 C 5.47 g/m*3 18.3 C 0 km/h
340 20-04-2011 20:01:02 17.3 C 5.3 g/m*3 17.3 C 0 km/h
341 20-04-2011 20:13:02 16.5 C 5.06 g/m*3 16.5 C 0 km/h
342 20-04-2011 20:25:02 15.7 C 4.95 g/m*3 15.7 C 0 km/h
343 20-04-2011 20:37:02 15.4 C 4.86 g/m*3 15.4 C 0 km/h
344 20-04-2011 20:49:01 14.6 C 4.76 g/m*3 14.6 C 0 km/h
345 20-04-2011 21:01:01 14.4 C 4.94 g/m*3 14.4 C 0 km/h
346 20-04-2011 21:13:02 13.8 C 5 g/m*3 13.8 C 0 km/h
347 20-04-2011 21:25:01 13.3 C 4.97 g/m*3 13.3 C 0 km/h
348 20-04-2011 21:37:01 12.8 C 5.15 g/m*3 12.8 C 0 km/h
349 20-04-2011 21:49:01 12.2 C 5.07 g/m*3 12.2 C 0 km/h
350 20-04-2011 22:01:02 12 C 5.12 g/m*3 12 C 0 km/h
Sensor: Nr:Datum:Temp:Abs-Feuchte:Windchill:Wind:
Aussen-T/F 351 20-04-2011 22:13:02 11.9 C 4.98 g/m*3 11.9 C 0 km/h
352 20-04-2011 22:25:01 11.7 C 5.12 g/m*3 11.7 C 0 km/h
353 20-04-2011 22:38:04 11.1 C 5.04 g/m*3 11.1 C 0 km/h
354 20-04-2011 22:50:04 10.7 C 5.21 g/m*3 10.7 C 0 km/h
355 20-04-2011 23:02:04 10.3 C 5.17 g/m*3 10.3 C 0 km/h
356 20-04-2011 23:14:04 9.9 C 5.32 g/m*3 9.9 C 0 km/h
357 20-04-2011 23:26:04 9.5 C 5.28 g/m*3 9.5 C 0 km/h
358 20-04-2011 23:38:04 9.3 C 5.21 g/m*3 9.3 C 0 km/h
359 20-04-2011 23:50:04 9.2 C 5.09 g/m*3 9.2 C 0 km/h

Legende:
   Min
   Max


Maximal/Minimal-Werte vom 23.02.2003 - 29.09.2020

Sensor Min Max Avg
Temp
(Aussen-T/F)
-16.4 °C
20-12-2009  01:30:01
40.4 °C
25-07-2019  16:20:00
11.32 °C

Die Daten stammen von einer Davis Vantage Pro 2 Wetter-Station und werden unter Linux mit der Software wview2wettercgi und aufbereitet. Alle Angaben erfolgen ohne Gewähr für ihre Vollständigkeit oder Richtigkeit.
Kontakt: Rainer Krienke krienke@uni-koblenz.de . Meine Webseiten an der Uni Koblenz oder privat.
Version: $Revision: 0.78 $